createdAt,value
2023-07-14T00:01:53.998Z,100128.41
2023-07-14T00:04:33.278Z,100125.59
2023-07-14T00:07:01.034Z,100119.84
2023-07-14T00:09:30.434Z,100109.53
2023-07-14T00:11:58.053Z,100118.50
2023-07-14T00:14:25.436Z,100118.75
2023-07-14T00:16:53.985Z,100115.13
2023-07-14T00:19:21.406Z,100122.41
2023-07-14T00:21:48.541Z,100126.06
2023-07-14T00:24:17.680Z,100123.28
2023-07-14T00:26:51.529Z,100128.22
2023-07-14T00:29:27.355Z,100119.97
2023-07-14T00:31:54.371Z,100113.81
2023-07-14T00:34:21.207Z,100120.63
2023-07-14T00:36:47.922Z,100123.00
2023-07-14T00:39:14.527Z,100120.03
2023-07-14T00:41:41.144Z,100119.63
2023-07-14T00:44:14.853Z,100119.69
2023-07-14T00:46:42.448Z,100114.78
2023-07-14T00:49:16.366Z,100114.84
2023-07-14T00:51:45.001Z,100119.97
2023-07-14T00:54:30.053Z,100115.13
2023-07-14T00:56:57.637Z,100116.16
2023-07-14T00:59:34.320Z,100110.47
2023-07-14T01:02:10.434Z,100108.50
2023-07-14T01:04:42.351Z,100122.28
2023-07-14T01:07:11.736Z,100118.09
2023-07-14T01:09:39.411Z,100125.19
2023-07-14T01:12:08.402Z,100126.31
2023-07-14T01:14:43.391Z,100124.97
2023-07-14T01:17:10.913Z,100129.16
2023-07-14T01:19:44.630Z,100127.38
2023-07-14T01:22:31.555Z,100134.03
2023-07-14T01:25:11.815Z,100133.16
2023-07-14T01:27:38.649Z,100140.75
2023-07-14T01:30:05.832Z,100146.56
2023-07-14T01:32:50.159Z,100138.97
2023-07-14T01:35:19.330Z,100143.69
2023-07-14T01:37:46.897Z,100146.44
2023-07-14T01:40:17.578Z,100146.78
2023-07-14T01:42:49.156Z,100146.63
2023-07-14T01:45:19.543Z,100153.16
2023-07-14T01:47:51.570Z,100152.84
2023-07-14T01:50:23.976Z,100146.53
2023-07-14T01:52:57.033Z,100152.53
2023-07-14T01:55:25.654Z,100151.09
2023-07-14T01:57:56.379Z,100153.28
2023-07-14T02:00:23.644Z,100158.38
2023-07-14T02:02:50.968Z,100155.84
2023-07-14T02:05:30.430Z,100160.16
2023-07-14T02:08:00.564Z,100158.78
2023-07-14T02:10:27.203Z,100160.53
2023-07-14T02:12:55.016Z,100170.63
2023-07-14T02:15:27.769Z,100167.78
2023-07-14T02:17:55.510Z,100165.00
2023-07-14T02:20:38.594Z,100155.38
2023-07-14T02:23:09.544Z,100161.50
2023-07-14T02:25:44.304Z,100167.91
2023-07-14T02:28:11.826Z,100168.75
2023-07-14T02:30:39.496Z,100171.59
2023-07-14T02:33:11.045Z,100173.41
2023-07-14T02:35:45.163Z,100171.91
2023-07-14T02:38:14.047Z,100176.94
2023-07-14T02:41:20.883Z,100173.81
2023-07-14T02:43:55.534Z,100188.84
2023-07-14T02:46:27.412Z,100181.94
2023-07-14T02:48:54.732Z,100189.25
2023-07-14T02:51:21.962Z,100191.50
2023-07-14T02:53:48.615Z,100198.00
2023-07-14T02:56:15.281Z,100206.78
2023-07-14T02:58:44.326Z,100212.78
2023-07-14T03:01:11.167Z,100210.56
2023-07-14T03:03:39.489Z,100213.00
2023-07-14T03:06:06.349Z,100214.25
2023-07-14T03:08:33.003Z,100216.97
2023-07-14T03:11:00.753Z,100221.56
2023-07-14T03:13:27.744Z,100223.38
2023-07-14T03:15:54.351Z,100219.44
2023-07-14T03:18:21.088Z,100219.94
2023-07-14T03:20:47.821Z,100228.31
2023-07-14T03:23:14.734Z,100219.53
2023-07-14T03:25:41.840Z,100223.78
2023-07-14T03:28:08.456Z,100223.84
2023-07-14T03:30:39.689Z,100220.38
2023-07-14T03:33:06.321Z,100225.50
2023-07-14T03:35:35.638Z,100222.84
2023-07-14T03:38:04.801Z,100218.69
2023-07-14T03:40:31.658Z,100228.84
2023-07-14T03:42:58.304Z,100230.53
2023-07-14T03:45:24.958Z,100239.56
2023-07-14T03:47:51.684Z,100243.63
2023-07-14T03:50:18.532Z,100239.97
2023-07-14T03:52:45.129Z,100248.19
2023-07-14T03:55:12.833Z,100247.03
2023-07-14T03:57:52.818Z,100254.00
2023-07-14T04:00:26.522Z,100254.94
2023-07-14T04:02:53.230Z,100255.28
2023-07-14T04:05:19.853Z,100255.28
2023-07-14T04:07:46.581Z,100258.59
2023-07-14T04:10:13.348Z,100264.72
2023-07-14T04:12:40.263Z,100261.03
2023-07-14T04:15:09.984Z,100266.19
2023-07-14T04:17:37.486Z,100270.66
2023-07-14T04:20:05.105Z,100260.53
2023-07-14T04:22:32.565Z,100265.72
2023-07-14T04:24:59.285Z,100272.38
2023-07-14T04:27:27.662Z,100276.22
2023-07-14T04:29:54.300Z,100272.31
2023-07-14T04:32:21.024Z,100278.28
2023-07-14T04:34:48.148Z,100279.56
2023-07-14T04:37:14.760Z,100285.25
2023-07-14T04:39:41.374Z,100286.66
2023-07-14T04:42:08.158Z,100286.00
2023-07-14T04:44:34.823Z,100289.63
2023-07-14T04:47:01.512Z,100278.19
2023-07-14T04:49:28.248Z,100280.31
2023-07-14T04:51:54.854Z,100287.91
2023-07-14T04:54:21.491Z,100292.84
2023-07-14T04:56:48.122Z,100294.88
2023-07-14T04:59:14.756Z,100281.72
2023-07-14T05:01:41.501Z,100300.97
2023-07-14T05:04:08.461Z,100300.34
2023-07-14T05:06:35.112Z,100306.31
2023-07-14T05:09:01.761Z,100308.44
2023-07-14T05:11:28.926Z,100311.44
2023-07-14T05:13:55.532Z,100317.28
2023-07-14T05:16:22.462Z,100314.34
2023-07-14T05:18:49.161Z,100316.78
2023-07-14T05:21:16.201Z,100319.88
2023-07-14T05:23:42.822Z,100318.75
2023-07-14T05:26:09.499Z,100321.50
2023-07-14T05:28:36.126Z,100326.09
2023-07-14T05:31:04.678Z,100325.00
2023-07-14T05:33:31.398Z,100327.69
2023-07-14T05:35:58.043Z,100318.16
2023-07-14T05:38:24.849Z,100328.06
2023-07-14T05:40:57.792Z,100332.03
2023-07-14T05:43:28.053Z,100326.94
2023-07-14T05:45:54.920Z,100328.28
2023-07-14T05:48:21.790Z,100331.69
2023-07-14T05:50:48.969Z,100325.44
2023-07-14T05:53:17.436Z,100326.47
2023-07-14T05:55:44.167Z,100326.03
2023-07-14T05:58:10.856Z,100320.91
2023-07-14T06:00:39.835Z,100329.06
2023-07-14T06:03:10.352Z,100324.38
2023-07-14T06:05:37.088Z,100326.50
2023-07-14T06:08:03.815Z,100322.66
2023-07-14T06:10:30.516Z,100321.59
2023-07-14T06:12:57.215Z,100326.59
2023-07-14T06:15:23.868Z,100334.09
2023-07-14T06:17:50.554Z,100332.22
2023-07-14T06:20:17.293Z,100332.13
2023-07-14T06:22:44.027Z,100334.13
2023-07-14T06:25:10.752Z,100330.19
2023-07-14T06:27:37.397Z,100346.06
2023-07-14T06:30:04.416Z,100343.78
2023-07-14T06:32:31.093Z,100344.34
2023-07-14T06:34:57.837Z,100342.00
2023-07-14T06:37:27.589Z,100341.16
2023-07-14T06:39:54.719Z,100342.66
2023-07-14T06:42:21.387Z,100344.72
2023-07-14T06:44:48.065Z,100347.50
2023-07-14T06:47:15.345Z,100343.09
2023-07-14T06:49:42.492Z,100348.13
2023-07-14T06:52:09.829Z,100350.69
2023-07-14T06:54:36.508Z,100351.91
2023-07-14T06:57:03.184Z,100356.75
2023-07-14T06:59:29.895Z,100351.84
2023-07-14T07:01:56.565Z,100346.53
2023-07-14T07:04:23.322Z,100351.63
2023-07-14T07:06:49.923Z,100343.91
2023-07-14T07:09:16.552Z,100342.03
2023-07-14T07:11:43.195Z,100342.72
2023-07-14T07:14:09.881Z,100343.97
2023-07-14T07:16:36.698Z,100345.59
2023-07-14T07:19:03.366Z,100344.22
2023-07-14T07:21:31.118Z,100341.81
2023-07-14T07:23:58.114Z,100346.47
2023-07-14T07:26:24.803Z,100356.53
2023-07-14T07:28:51.466Z,100356.78
2023-07-14T07:31:18.114Z,100350.81
2023-07-14T07:33:44.963Z,100358.88
2023-07-14T07:36:20.693Z,100363.88
2023-07-14T07:38:50.890Z,100362.03
2023-07-14T07:41:21.205Z,100364.84
2023-07-14T07:43:47.939Z,100367.41
2023-07-14T07:46:15.412Z,100362.78
2023-07-14T07:48:43.843Z,100362.97
2023-07-14T07:51:11.097Z,100370.38
2023-07-14T07:53:37.757Z,100371.09
2023-07-14T07:56:04.530Z,100364.97
2023-07-14T07:58:31.391Z,100374.81
2023-07-14T08:01:03.732Z,100371.16
2023-07-14T08:03:31.038Z,100369.41
2023-07-14T08:06:04.813Z,100360.97
2023-07-14T08:08:31.786Z,100364.44
2023-07-14T08:10:59.162Z,100361.78
2023-07-14T08:13:25.885Z,100359.09
2023-07-14T08:15:56.801Z,100356.03
2023-07-14T08:18:24.327Z,100362.63
2023-07-14T08:20:51.097Z,100362.94
2023-07-14T08:23:20.199Z,100359.41
2023-07-14T08:25:57.897Z,100358.75
2023-07-14T08:28:27.420Z,100362.81
2023-07-14T08:30:55.738Z,100360.41
2023-07-14T08:33:23.801Z,100359.50
2023-07-14T08:35:51.278Z,100360.88
2023-07-14T08:38:18.202Z,100356.09
2023-07-14T08:41:03.354Z,100352.72
2023-07-14T08:43:57.804Z,100365.38
2023-07-14T08:46:44.419Z,100357.31
2023-07-14T08:49:27.439Z,100363.06
2023-07-14T08:51:58.567Z,100361.41
2023-07-14T08:54:28.745Z,100352.50
2023-07-14T08:56:55.548Z,100355.84
2023-07-14T08:59:31.200Z,100363.97
2023-07-14T09:02:00.669Z,100370.50
2023-07-14T09:04:33.620Z,100359.72
2023-07-14T09:07:00.342Z,100363.97
2023-07-14T09:09:34.472Z,100366.66
2023-07-14T09:12:22.528Z,100373.19
2023-07-14T09:15:12.145Z,100373.09
2023-07-14T09:17:49.268Z,100366.03
2023-07-14T09:20:30.236Z,100367.94
2023-07-14T09:23:38.689Z,100367.09
2023-07-14T09:26:15.048Z,100372.50
2023-07-14T09:28:48.391Z,100381.28
2023-07-14T09:31:38.881Z,100382.66
2023-07-14T09:34:24.422Z,100372.66
2023-07-14T09:36:53.018Z,100368.88
2023-07-14T09:39:37.312Z,100373.63
2023-07-14T09:42:10.515Z,100373.63
2023-07-14T09:44:37.280Z,100370.22
2023-07-14T09:47:06.522Z,100362.69
2023-07-14T09:49:43.408Z,100355.16
2023-07-14T09:52:13.734Z,100355.13
2023-07-14T09:55:00.469Z,100361.44
2023-07-14T09:57:40.341Z,100370.50
2023-07-14T10:00:24.875Z,100360.22
2023-07-14T10:03:02.881Z,100364.44
2023-07-14T10:05:34.082Z,100356.25
2023-07-14T10:08:00.933Z,100360.94
2023-07-14T10:10:27.628Z,100360.88
2023-07-14T10:12:54.627Z,100356.78
2023-07-14T10:15:36.179Z,100349.75
2023-07-14T10:18:14.032Z,100361.91
2023-07-14T10:20:40.942Z,100345.13
2023-07-14T10:23:17.807Z,100343.50
2023-07-14T10:25:51.114Z,100353.22
2023-07-14T10:28:23.532Z,100345.38
2023-07-14T10:31:19.679Z,100349.06
2023-07-14T10:34:06.141Z,100346.47
2023-07-14T10:36:37.470Z,100343.44
2023-07-14T10:39:20.051Z,100340.34
2023-07-14T10:41:48.175Z,100336.44
2023-07-14T10:44:30.160Z,100338.63
2023-07-14T10:47:02.813Z,100331.53
2023-07-14T10:50:00.700Z,100340.41
2023-07-14T10:52:38.886Z,100328.63
2023-07-14T10:55:22.212Z,100330.25
2023-07-14T10:57:56.334Z,100324.00
2023-07-14T11:00:26.878Z,100321.16
2023-07-14T11:03:12.336Z,100323.50
2023-07-14T11:05:39.521Z,100316.16
2023-07-14T11:08:10.908Z,100319.28
2023-07-14T11:10:48.627Z,100310.63
2023-07-14T11:13:44.190Z,100313.94
2023-07-14T11:16:34.561Z,100315.50
2023-07-14T11:19:16.770Z,100312.38
2023-07-14T11:21:50.262Z,100302.16
2023-07-14T11:24:32.772Z,100303.81
2023-07-14T11:27:19.854Z,100305.97
2023-07-14T11:30:01.418Z,100300.47
2023-07-14T11:32:45.175Z,100301.25
2023-07-14T11:35:26.237Z,100295.47
2023-07-14T11:38:11.533Z,100302.50
2023-07-14T11:40:42.247Z,100296.53
2023-07-14T11:43:15.973Z,100291.50
2023-07-14T11:45:42.951Z,100294.13
2023-07-14T11:48:23.636Z,100290.72
2023-07-14T11:51:05.726Z,100284.78
2023-07-14T11:53:36.428Z,100291.06
2023-07-14T11:56:22.309Z,100283.75
2023-07-14T11:58:52.990Z,100290.13
2023-07-14T12:01:27.517Z,100279.69
2023-07-14T12:03:54.998Z,100272.75
2023-07-14T12:06:22.950Z,100273.13
2023-07-14T12:09:12.387Z,100278.94
2023-07-14T12:11:43.624Z,100271.72
2023-07-14T12:14:30.663Z,100271.66
2023-07-14T12:16:59.851Z,100263.88
2023-07-14T12:19:30.795Z,100260.09
2023-07-14T12:22:07.419Z,100265.72
2023-07-14T12:25:00.503Z,100265.69
2023-07-14T12:27:35.117Z,100261.75
2023-07-14T12:30:16.944Z,100249.63
2023-07-14T12:32:43.689Z,100242.66
2023-07-14T12:35:18.692Z,100245.91
2023-07-14T12:37:46.876Z,100252.03
2023-07-14T12:40:16.558Z,100243.53
2023-07-14T12:42:44.582Z,100243.81
2023-07-14T12:45:17.635Z,100240.41
2023-07-14T12:47:47.729Z,100247.56
2023-07-14T12:50:21.432Z,100247.19
2023-07-14T12:52:51.493Z,100240.63
2023-07-14T12:55:20.661Z,100240.97
2023-07-14T12:57:49.029Z,100241.72
2023-07-14T13:00:20.117Z,100232.25
2023-07-14T13:02:47.778Z,100237.34
2023-07-14T13:05:18.391Z,100230.91
2023-07-14T13:07:51.392Z,100230.53
2023-07-14T13:10:41.021Z,100225.50
2023-07-14T13:13:16.779Z,100226.50
2023-07-14T13:15:43.764Z,100225.16
2023-07-14T13:18:22.877Z,100220.22
2023-07-14T13:20:49.547Z,100210.72
2023-07-14T13:23:23.477Z,100219.66
2023-07-14T13:26:12.048Z,100215.69
2023-07-14T13:28:42.552Z,100223.66
2023-07-14T13:31:21.668Z,100215.59
2023-07-14T13:33:49.503Z,100206.66
2023-07-14T13:36:32.751Z,100214.59
2023-07-14T13:39:06.424Z,100208.63
2023-07-14T13:41:33.052Z,100202.78
2023-07-14T13:44:36.570Z,100200.09
2023-07-14T13:47:20.421Z,100193.84
2023-07-14T13:49:48.719Z,100191.94
2023-07-14T13:52:18.384Z,100202.53
2023-07-14T13:54:48.598Z,100192.56
2023-07-14T13:57:15.301Z,100196.25
2023-07-14T13:59:44.638Z,100189.66
2023-07-14T14:02:52.685Z,100194.28
2023-07-14T14:05:20.366Z,100195.69
2023-07-14T14:07:48.588Z,100199.06
2023-07-14T14:10:18.472Z,100188.03
2023-07-14T14:12:45.632Z,100191.25
2023-07-14T14:15:30.985Z,100192.50
2023-07-14T14:18:05.644Z,100194.41
2023-07-14T14:20:34.292Z,100175.78
2023-07-14T14:23:02.031Z,100176.19
2023-07-14T14:25:29.032Z,100172.72
2023-07-14T14:27:55.726Z,100176.13
2023-07-14T14:30:30.675Z,100172.34
2023-07-14T14:32:58.088Z,100172.03
2023-07-14T14:35:28.359Z,100168.47
2023-07-14T14:37:56.197Z,100170.47
2023-07-14T14:40:27.084Z,100163.94
2023-07-14T14:43:01.820Z,100170.63
2023-07-14T14:45:29.077Z,100168.84
2023-07-14T14:47:55.705Z,100161.94
2023-07-14T14:50:24.376Z,100166.75
2023-07-14T14:52:51.875Z,100168.63
2023-07-14T14:55:21.569Z,100167.78
2023-07-14T14:57:52.491Z,100169.31
2023-07-14T15:00:25.515Z,100172.88
2023-07-14T15:02:52.902Z,100166.50
2023-07-14T15:05:21.554Z,100169.53
2023-07-14T15:07:49.652Z,100156.63
2023-07-14T15:10:17.302Z,100158.00
2023-07-14T15:12:46.065Z,100156.28
2023-07-14T15:15:41.061Z,100144.06
2023-07-14T15:18:11.940Z,100154.09
2023-07-14T15:20:38.863Z,100152.53
2023-07-14T15:23:09.028Z,100155.28
2023-07-14T15:25:39.502Z,100159.69
2023-07-14T15:28:09.064Z,100148.97
2023-07-14T15:30:35.911Z,100146.53
2023-07-14T15:33:04.421Z,100149.06
2023-07-14T15:35:43.935Z,100148.41
2023-07-14T15:38:20.706Z,100139.28
2023-07-14T15:40:50.222Z,100134.88
2023-07-14T15:43:20.275Z,100139.97
2023-07-14T15:45:51.645Z,100142.06
2023-07-14T15:48:40.997Z,100137.59
2023-07-14T15:51:35.283Z,100140.13
2023-07-14T15:54:05.319Z,100131.13
2023-07-14T15:56:32.233Z,100129.13
2023-07-14T15:59:01.731Z,100134.19
2023-07-14T16:01:31.677Z,100139.84
2023-07-14T16:04:02.691Z,100131.44
2023-07-14T16:06:30.226Z,100131.31
2023-07-14T16:08:57.180Z,100126.53
2023-07-14T16:11:36.867Z,100136.94
2023-07-14T16:14:05.708Z,100131.13
2023-07-14T16:16:32.371Z,100131.41
2023-07-14T16:18:59.065Z,100124.00
2023-07-14T16:21:32.579Z,100127.34
2023-07-14T16:24:00.250Z,100122.97
2023-07-14T16:26:27.568Z,100130.69
2023-07-14T16:28:55.970Z,100120.28
2023-07-14T16:31:23.283Z,100120.31
2023-07-14T16:33:50.049Z,100116.88
2023-07-14T16:36:31.261Z,100130.22
2023-07-14T16:39:02.237Z,100114.59
2023-07-14T16:41:29.296Z,100122.53
2023-07-14T16:43:55.892Z,100113.66
2023-07-14T16:46:22.908Z,100128.44
2023-07-14T16:48:49.560Z,100114.78
2023-07-14T16:51:17.014Z,100118.56
2023-07-14T16:53:43.668Z,100112.94
2023-07-14T16:56:14.193Z,100121.63
2023-07-14T16:58:41.251Z,100118.13
2023-07-14T17:01:14.919Z,100120.94
2023-07-14T17:03:41.636Z,100124.66
2023-07-14T17:06:08.283Z,100124.69
2023-07-14T17:08:35.568Z,100126.78
2023-07-14T17:11:04.200Z,100122.28
2023-07-14T17:13:31.025Z,100129.44
2023-07-14T17:15:59.380Z,100119.25
2023-07-14T17:18:29.177Z,100124.69
2023-07-14T17:20:59.125Z,100125.09
2023-07-14T17:23:37.119Z,100123.53
2023-07-14T17:26:04.081Z,100130.50
2023-07-14T17:28:30.676Z,100125.56
2023-07-14T17:30:57.561Z,100132.47
2023-07-14T17:33:26.225Z,100131.59
2023-07-14T17:35:56.179Z,100131.91
2023-07-14T17:38:28.494Z,100131.59
2023-07-14T17:40:55.116Z,100125.53
2023-07-14T17:43:21.849Z,100129.59
2023-07-14T17:45:49.646Z,100133.81
2023-07-14T17:48:17.061Z,100133.06
2023-07-14T17:50:48.952Z,100132.63
2023-07-14T17:53:25.908Z,100130.66
2023-07-14T17:55:53.019Z,100130.66
2023-07-14T17:58:21.790Z,100126.28
2023-07-14T18:00:50.405Z,100131.91
2023-07-14T18:03:24.648Z,100131.34
2023-07-14T18:05:52.204Z,100132.38
2023-07-14T18:08:20.639Z,100125.47
2023-07-14T18:10:59.427Z,100132.38
2023-07-14T18:13:34.028Z,100126.84
2023-07-14T18:16:00.944Z,100134.41
2023-07-14T18:18:27.613Z,100137.19
2023-07-14T18:20:59.753Z,100136.53
2023-07-14T18:23:29.460Z,100139.03
2023-07-14T18:25:56.867Z,100142.97
2023-07-14T18:28:26.079Z,100144.66
2023-07-14T18:30:53.612Z,100142.38
2023-07-14T18:33:24.949Z,100142.88
2023-07-14T18:35:52.987Z,100141.63
2023-07-14T18:38:19.684Z,100141.25
2023-07-14T18:40:48.676Z,100144.66
2023-07-14T18:43:24.990Z,100146.72
2023-07-14T18:45:52.515Z,100149.06
2023-07-14T18:48:22.072Z,100151.91
2023-07-14T18:50:54.783Z,100144.56
2023-07-14T18:53:23.564Z,100146.22
2023-07-14T18:55:51.042Z,100143.72
2023-07-14T18:58:20.355Z,100146.16
2023-07-14T19:00:50.849Z,100154.56
2023-07-14T19:03:30.226Z,100151.75
2023-07-14T19:05:57.757Z,100158.91
2023-07-14T19:08:25.211Z,100161.44
2023-07-14T19:11:02.723Z,100167.69
2023-07-14T19:13:36.727Z,100162.72
2023-07-14T19:16:03.615Z,100163.44
2023-07-14T19:18:30.416Z,100160.75
2023-07-14T19:21:01.746Z,100158.06
2023-07-14T19:23:28.903Z,100163.13
2023-07-14T19:25:57.266Z,100162.56
2023-07-14T19:28:26.212Z,100159.59
2023-07-14T19:30:54.244Z,100154.63
2023-07-14T19:33:23.836Z,100156.47
2023-07-14T19:35:54.348Z,100155.22
2023-07-14T19:38:21.228Z,100152.50
2023-07-14T19:40:48.001Z,100154.91
2023-07-14T19:43:17.766Z,100153.78
2023-07-14T19:45:45.036Z,100153.50
2023-07-14T19:48:16.711Z,100158.59
2023-07-14T19:50:45.285Z,100156.59
2023-07-14T19:53:27.879Z,100162.09
2023-07-14T19:55:55.785Z,100158.94
2023-07-14T19:58:23.503Z,100159.91
2023-07-14T20:00:55.039Z,100161.53
2023-07-14T20:03:26.496Z,100162.34
2023-07-14T20:05:55.015Z,100160.53
2023-07-14T20:08:27.292Z,100163.66
2023-07-14T20:10:57.524Z,100170.16
2023-07-14T20:13:28.574Z,100163.34
2023-07-14T20:15:57.693Z,100173.22
2023-07-14T20:18:26.790Z,100170.66
2023-07-14T20:20:55.295Z,100165.41
2023-07-14T20:23:24.523Z,100167.19
2023-07-14T20:25:54.254Z,100157.84
2023-07-14T20:28:39.192Z,100156.66
2023-07-14T20:31:18.629Z,100158.16
2023-07-14T20:33:50.152Z,100153.13
2023-07-14T20:36:22.702Z,100148.78
2023-07-14T20:38:50.301Z,100150.44
2023-07-14T20:41:16.848Z,100151.91
2023-07-14T20:43:43.462Z,100146.22
2023-07-14T20:46:21.197Z,100145.59
2023-07-14T20:48:55.708Z,100147.78
2023-07-14T20:51:29.190Z,100145.59
2023-07-14T20:53:56.012Z,100154.13
2023-07-14T20:56:22.650Z,100150.28
2023-07-14T20:58:49.266Z,100158.22
2023-07-14T21:01:21.578Z,100154.44
2023-07-14T21:03:51.282Z,100148.47
2023-07-14T21:06:23.638Z,100150.16
2023-07-14T21:08:52.094Z,100140.22
2023-07-14T21:11:25.334Z,100140.09
2023-07-14T21:13:54.954Z,100139.59
2023-07-14T21:16:23.436Z,100143.56
2023-07-14T21:18:50.696Z,100135.00
2023-07-14T21:21:31.195Z,100142.13
2023-07-14T21:23:59.306Z,100145.28
2023-07-14T21:26:32.044Z,100134.84
2023-07-14T21:29:01.199Z,100147.00
2023-07-14T21:31:34.207Z,100144.59
2023-07-14T21:34:01.290Z,100144.75
2023-07-14T21:36:28.350Z,100147.38
2023-07-14T21:38:57.548Z,100155.31
2023-07-14T21:41:25.212Z,100156.06
2023-07-14T21:43:55.212Z,100155.94
2023-07-14T21:46:24.487Z,100158.25
2023-07-14T21:48:51.255Z,100168.84
2023-07-14T21:51:24.430Z,100173.00
2023-07-14T21:53:53.418Z,100168.06
2023-07-14T21:56:21.107Z,100165.19
2023-07-14T21:58:47.860Z,100171.69
2023-07-14T22:01:28.311Z,100167.22
2023-07-14T22:03:56.868Z,100163.19
2023-07-14T22:06:25.077Z,100162.72
2023-07-14T22:08:51.758Z,100169.00
2023-07-14T22:11:19.827Z,100164.09
2023-07-14T22:13:46.448Z,100165.25
2023-07-14T22:16:18.633Z,100171.34
2023-07-14T22:18:47.624Z,100173.06
2023-07-14T22:21:15.408Z,100171.34
2023-07-14T22:23:42.043Z,100179.41
2023-07-14T22:26:14.262Z,100180.59
2023-07-14T22:28:41.837Z,100175.06
2023-07-14T22:31:27.439Z,100178.28
2023-07-14T22:33:56.079Z,100178.88
2023-07-14T22:36:23.496Z,100178.63
2023-07-14T22:38:50.335Z,100182.56
2023-07-14T22:41:30.881Z,100188.88
2023-07-14T22:44:02.893Z,100193.53
2023-07-14T22:46:31.147Z,100192.56
2023-07-14T22:48:59.040Z,100190.72
2023-07-14T22:51:33.595Z,100191.09
2023-07-14T22:54:02.175Z,100192.06
2023-07-14T22:56:29.042Z,100179.72
2023-07-14T22:58:55.782Z,100183.50
2023-07-14T23:01:29.261Z,100184.16
2023-07-14T23:03:56.716Z,100175.31
2023-07-14T23:06:24.474Z,100179.28
2023-07-14T23:08:53.148Z,100185.72
2023-07-14T23:11:29.534Z,100175.22
2023-07-14T23:13:56.467Z,100182.56
2023-07-14T23:16:24.068Z,100170.78
2023-07-14T23:18:50.795Z,100173.25
2023-07-14T23:21:23.779Z,100169.38
2023-07-14T23:23:52.205Z,100169.63
2023-07-14T23:26:22.300Z,100164.66
2023-07-14T23:28:49.217Z,100157.56
2023-07-14T23:31:35.559Z,100161.97
2023-07-14T23:34:11.879Z,100159.41
2023-07-14T23:36:38.520Z,100159.16
2023-07-14T23:39:05.213Z,100157.31
2023-07-14T23:41:32.585Z,100159.38
2023-07-14T23:44:00.939Z,100156.31
2023-07-14T23:46:27.901Z,100160.13
2023-07-14T23:48:54.593Z,100156.25
2023-07-14T23:51:27.654Z,100159.59
2023-07-14T23:53:54.654Z,100163.19
2023-07-14T23:56:21.254Z,100157.19
2023-07-14T23:58:47.875Z,100163.66
